Time;durP1;ratioP1;P1;durP2;ratioP2;P2;SDS_P1;SDS_P2;PMS_P1;PMS_P2;Temp;Humidity;BMP_temperature;BMP_pressure;BME280_temperature;BME280_humidity;BME280_pressure;Samples;Min_cycle;Max_cycle;Signal;HPM_P1;HPM_P2
2021/10/29 00:01:55;;;;;;;29.58;17.67;;;10.80;99.90;;;;;;4122703;28;20043;-73
2021/10/29 00:03:55;;;;;;;23.73;14.20;;;10.70;99.90;;;;;;4122655;28;20422;-73
2021/10/29 00:05:56;;;;;;;24.65;16.00;;;10.70;99.90;;;;;;4125846;28;20038;-73
2021/10/29 00:07:57;;;;;;;28.67;17.17;;;10.80;99.90;;;;;;4123575;28;20042;-73
2021/10/29 00:09:58;;;;;;;27.25;16.23;;;10.70;99.90;;;;;;4125930;28;20577;-73
2021/10/29 00:11:59;;;;;;;26.75;14.18;;;10.70;99.90;;;;;;4124649;28;20109;-72
2021/10/29 00:14:00;;;;;;;26.02;14.93;;;10.70;99.90;;;;;;4122067;28;20146;-72
2021/10/29 00:16:00;;;;;;;24.10;15.65;;;10.80;99.90;;;;;;4122922;28;20030;-73
2021/10/29 00:18:01;;;;;;;30.23;14.60;;;10.70;99.90;;;;;;4122119;28;20571;-73
2021/10/29 00:20:03;;;;;;;26.98;15.30;;;10.80;99.90;;;;;;4124251;28;20482;-73
2021/10/29 00:22:05;;;;;;;29.58;16.45;;;10.80;99.90;;;;;;4121043;28;20034;-73
2021/10/29 00:24:05;;;;;;;26.67;15.45;;;10.80;99.90;;;;;;4118059;28;20038;-73
2021/10/29 00:26:06;;;;;;;29.83;15.57;;;10.80;99.90;;;;;;4115973;28;20138;-73
2021/10/29 00:28:06;;;;;;;30.27;15.65;;;10.80;99.90;;;;;;4118068;28;20045;-73
2021/10/29 00:30:08;;;;;;;23.88;14.43;;;10.80;99.90;;;;;;4117949;28;20065;-72
2021/10/29 00:32:09;;;;;;;26.52;15.63;;;10.80;99.90;;;;;;4122955;28;20042;-72
2021/10/29 00:34:09;;;;;;;25.05;15.80;;;10.80;99.90;;;;;;4122555;28;20507;-73
2021/10/29 00:36:10;;;;;;;25.67;15.25;;;10.80;99.90;;;;;;4125216;28;20116;-73
2021/10/29 00:38:11;;;;;;;27.85;15.38;;;10.80;99.90;;;;;;4119129;28;20042;-73
2021/10/29 00:40:13;;;;;;;23.55;14.50;;;10.80;99.90;;;;;;4121463;28;20034;-73
2021/10/29 00:42:14;;;;;;;23.27;14.70;;;10.80;99.90;;;;;;4121950;28;20070;-72
2021/10/29 00:44:21;;;;;;;21.20;13.98;;;10.80;99.90;;;;;;4121721;28;20031;-73
2021/10/29 00:46:22;;;;;;;24.58;13.98;;;10.90;99.90;;;;;;4122092;28;20041;-73
2021/10/29 00:48:23;;;;;;;27.38;14.18;;;10.90;99.90;;;;;;4124462;28;20107;-73
2021/10/29 00:50:23;;;;;;;20.90;13.00;;;10.90;99.90;;;;;;4118886;28;20055;-73
2021/10/29 00:52:25;;;;;;;24.88;14.90;;;10.90;99.90;;;;;;4122645;28;20046;-72
2021/10/29 00:54:25;;;;;;;20.67;13.65;;;11.00;99.90;;;;;;4120859;28;20046;-73
2021/10/29 00:56:26;;;;;;;24.45;15.45;;;11.00;99.90;;;;;;4121779;28;20034;-73
2021/10/29 00:58:27;;;;;;;23.52;15.00;;;10.90;99.90;;;;;;4122314;28;20034;-73
2021/10/29 01:00:27;;;;;;;23.05;13.82;;;10.90;99.90;;;;;;4120792;28;20494;-73
2021/10/29 01:02:28;;;;;;;21.48;14.38;;;10.90;99.90;;;;;;4121539;28;20156;-73
2021/10/29 01:04:29;;;;;;;29.35;16.17;;;10.90;99.90;;;;;;4126725;28;20117;-73
2021/10/29 01:06:29;;;;;;;20.33;13.45;;;10.90;99.90;;;;;;4123671;28;20030;-73
2021/10/29 01:08:30;;;;;;;21.38;13.23;;;10.90;99.90;;;;;;4125772;28;20103;-73
2021/10/29 01:10:31;;;;;;;20.65;12.80;;;10.90;99.90;;;;;;4122255;28;20042;-73
2021/10/29 01:12:32;;;;;;;23.10;14.45;;;10.90;99.90;;;;;;4128416;28;20080;-73
2021/10/29 01:14:33;;;;;;;22.08;13.07;;;10.90;99.90;;;;;;4125878;28;20057;-72
2021/10/29 01:16:33;;;;;;;18.65;12.43;;;10.90;99.90;;;;;;4125842;28;20113;-73
2021/10/29 01:18:34;;;;;;;22.77;14.10;;;11.00;99.90;;;;;;4124666;28;20923;-73
2021/10/29 01:20:35;;;;;;;22.98;13.82;;;10.90;99.90;;;;;;4127432;28;20154;-73
2021/10/29 01:22:36;;;;;;;18.40;11.90;;;10.90;99.90;;;;;;4127024;28;20054;-73
2021/10/29 01:24:36;;;;;;;20.27;12.60;;;11.00;99.90;;;;;;4126867;28;20050;-73
2021/10/29 01:26:37;;;;;;;23.92;14.57;;;11.00;99.90;;;;;;4124538;28;20050;-73
2021/10/29 01:28:38;;;;;;;23.40;15.00;;;11.00;99.90;;;;;;4122771;28;20670;-73
2021/10/29 01:30:40;;;;;;;21.50;13.52;;;10.90;99.90;;;;;;4126255;28;20042;-72
2021/10/29 01:32:41;;;;;;;20.50;13.23;;;10.90;99.90;;;;;;4123059;28;20137;-73
2021/10/29 01:34:42;;;;;;;21.55;13.55;;;10.90;99.90;;;;;;4124231;28;20556;-73
2021/10/29 01:36:44;;;;;;;23.10;13.40;;;10.90;99.90;;;;;;4123705;28;20089;-73
2021/10/29 01:38:45;;;;;;;22.90;14.75;;;10.80;99.90;;;;;;4126325;28;20080;-73
2021/10/29 01:40:46;;;;;;;20.85;13.32;;;10.80;99.90;;;;;;4125191;28;20050;-72
2021/10/29 01:42:47;;;;;;;21.55;13.35;;;10.80;99.90;;;;;;4125738;28;20042;-73
2021/10/29 01:44:48;;;;;;;22.27;14.70;;;10.80;99.90;;;;;;4124986;28;20117;-73
2021/10/29 01:46:49;;;;;;;20.10;13.57;;;10.80;99.90;;;;;;4123080;28;20532;-73
2021/10/29 01:48:51;;;;;;;21.38;12.98;;;10.80;99.90;;;;;;4121069;28;20669;-73
2021/10/29 01:50:52;;;;;;;23.58;13.90;;;10.80;99.90;;;;;;4124287;28;20584;-73
2021/10/29 01:52:53;;;;;;;22.42;13.55;;;10.80;99.90;;;;;;4121253;28;20034;-73
2021/10/29 01:54:54;;;;;;;24.10;14.32;;;10.80;99.90;;;;;;4126348;28;20054;-73
2021/10/29 01:56:56;;;;;;;20.65;12.90;;;10.70;99.90;;;;;;4121585;28;20031;-73
2021/10/29 01:58:56;;;;;;;21.00;12.88;;;10.70;99.90;;;;;;4120534;28;20084;-73
2021/10/29 02:00:57;;;;;;;24.35;14.02;;;10.70;99.90;;;;;;4122286;28;20060;-73
2021/10/29 02:02:58;;;;;;;20.42;12.70;;;10.70;99.90;;;;;;4123098;28;21528;-73
2021/10/29 02:04:59;;;;;;;22.35;14.25;;;10.70;99.90;;;;;;4123498;28;20069;-73
2021/10/29 02:07:00;;;;;;;22.67;13.07;;;10.70;99.90;;;;;;4124891;28;20042;-73
2021/10/29 02:09:00;;;;;;;21.00;13.70;;;10.70;99.90;;;;;;4120106;28;20060;-73
2021/10/29 02:11:01;;;;;;;19.63;12.57;;;10.70;99.90;;;;;;4122545;28;20037;-73
2021/10/29 02:13:03;;;;;;;22.25;13.95;;;10.70;99.90;;;;;;4123466;28;20035;-73
2021/10/29 02:15:05;;;;;;;22.33;13.30;;;10.70;99.90;;;;;;4121461;28;20050;-73
2021/10/29 02:17:05;;;;;;;22.25;13.77;;;10.70;99.90;;;;;;4121665;28;20030;-73
2021/10/29 02:19:06;;;;;;;23.15;14.32;;;10.60;99.90;;;;;;4120938;28;20533;-73
2021/10/29 02:21:07;;;;;;;21.30;13.23;;;10.60;99.90;;;;;;4126775;28;20461;-73
2021/10/29 02:23:08;;;;;;;21.13;13.55;;;10.60;99.90;;;;;;4121320;28;20104;-73
2021/10/29 02:25:08;;;;;;;22.15;13.48;;;10.60;99.90;;;;;;4123841;28;20047;-73
2021/10/29 02:27:09;;;;;;;21.63;13.40;;;10.60;99.90;;;;;;4122263;28;20061;-73
2021/10/29 02:29:10;;;;;;;22.63;13.63;;;10.60;99.90;;;;;;4120605;28;20034;-73
2021/10/29 02:31:11;;;;;;;21.75;13.35;;;10.60;99.90;;;;;;4122990;28;20570;-73
2021/10/29 02:33:12;;;;;;;22.30;12.80;;;10.60;99.90;;;;;;4120333;28;20504;-73
2021/10/29 02:35:13;;;;;;;18.90;11.40;;;10.60;99.90;;;;;;4126521;28;20065;-73
2021/10/29 02:37:14;;;;;;;19.80;12.80;;;10.70;99.90;;;;;;4125000;28;20100;-73
2021/10/29 02:39:14;;;;;;;20.67;12.90;;;10.60;99.90;;;;;;4123785;28;20039;-73
2021/10/29 02:41:15;;;;;;;21.90;13.75;;;10.60;99.90;;;;;;4122522;28;20053;-73
2021/10/29 02:43:15;;;;;;;22.15;14.07;;;10.60;99.90;;;;;;4121939;28;20058;-73
2021/10/29 02:45:16;;;;;;;21.80;13.65;;;10.60;99.90;;;;;;4105479;28;20149;-73
2021/10/29 02:47:17;;;;;;;21.52;12.98;;;10.60;99.90;;;;;;4120847;28;20042;-72
2021/10/29 02:49:18;;;;;;;21.02;13.35;;;10.50;99.90;;;;;;4126454;28;20041;-73
2021/10/29 02:51:18;;;;;;;22.52;13.52;;;10.50;99.90;;;;;;4128015;28;20504;-73
2021/10/29 02:53:19;;;;;;;20.42;13.20;;;10.50;99.90;;;;;;4124660;28;20042;-73
2021/10/29 02:55:19;;;;;;;22.58;13.10;;;10.50;99.90;;;;;;4121941;28;20050;-73
2021/10/29 02:57:20;;;;;;;18.13;11.82;;;10.50;99.90;;;;;;4123334;28;20034;-73
2021/10/29 02:59:21;;;;;;;19.50;12.20;;;10.50;99.90;;;;;;4123012;28;20049;-73
2021/10/29 03:01:21;;;;;;;17.20;11.65;;;10.50;99.90;;;;;;4124223;28;20441;-73
2021/10/29 03:03:22;;;;;;;20.55;12.48;;;10.50;99.90;;;;;;4125117;28;20026;-73
2021/10/29 03:05:23;;;;;;;23.05;13.15;;;10.50;99.90;;;;;;4105171;28;20038;-73
2021/10/29 03:07:24;;;;;;;19.88;12.35;;;10.50;99.90;;;;;;4121981;28;20490;-73
2021/10/29 03:09:24;;;;;;;20.08;12.05;;;10.60;99.90;;;;;;4128111;28;20030;-73
2021/10/29 03:11:25;;;;;;;17.98;11.68;;;10.60;99.90;;;;;;4122048;28;20147;-73
2021/10/29 03:13:26;;;;;;;21.42;12.00;;;10.60;99.90;;;;;;4121725;28;20654;-72
2021/10/29 03:15:26;;;;;;;20.38;12.75;;;10.60;99.90;;;;;;4122670;28;20034;-73
2021/10/29 03:17:27;;;;;;;22.73;12.90;;;10.60;99.90;;;;;;4105858;28;20085;-73
2021/10/29 03:19:28;;;;;;;21.48;12.82;;;10.60;99.90;;;;;;4136452;28;20119;-73
2021/10/29 03:21:29;;;;;;;19.08;11.45;;;10.60;99.90;;;;;;4122509;28;20030;-73
2021/10/29 03:23:29;;;;;;;22.33;12.75;;;10.70;99.90;;;;;;4123580;28;20587;-73
2021/10/29 03:25:30;;;;;;;21.05;12.10;;;10.60;99.90;;;;;;4124541;28;20069;-72
2021/10/29 03:27:31;;;;;;;16.10;10.95;;;10.60;99.90;;;;;;4121913;28;20494;-73
2021/10/29 03:29:31;;;;;;;19.30;11.38;;;10.60;99.90;;;;;;4125363;28;20077;-73
2021/10/29 03:31:32;;;;;;;18.27;11.25;;;10.70;99.90;;;;;;4118803;28;20041;-73
2021/10/29 03:33:38;;;;;;;18.65;10.75;;;10.70;99.90;;;;;;4123814;28;20037;-74
2021/10/29 03:35:38;;;;;;;18.45;11.13;;;10.70;99.90;;;;;;4124068;28;20042;-73
2021/10/29 03:42:31;;;;;;;17.65;10.90;;;10.70;99.90;;;;;;4122189;28;20042;-73
2021/10/29 03:47:05;;;;;;;18.85;10.98;;;10.70;99.90;;;;;;4093863;28;20042;-73
2021/10/29 03:53:31;;;;;;;17.13;11.13;;;10.80;99.90;;;;;;4122360;28;20117;-73
2021/10/29 03:55:38;;;;;;;19.02;12.02;;;10.80;99.90;;;;;;4119205;28;20039;-73
2021/10/29 03:57:39;;;;;;;17.17;10.70;;;10.80;99.90;;;;;;4121668;28;20146;-73
2021/10/29 03:59:40;;;;;;;16.95;10.32;;;10.70;99.90;;;;;;4129182;28;20058;-73
2021/10/29 04:01:40;;;;;;;17.45;10.98;;;10.80;99.90;;;;;;4122145;28;20054;-73
2021/10/29 04:03:42;;;;;;;19.98;11.15;;;10.70;99.90;;;;;;4122006;28;20081;-73
2021/10/29 04:05:43;;;;;;;15.30;9.50;;;10.80;99.90;;;;;;4126871;28;20109;-73
2021/10/29 04:07:43;;;;;;;19.42;11.65;;;10.80;99.90;;;;;;4124283;28;20406;-73
2021/10/29 04:09:44;;;;;;;14.48;9.75;;;10.70;99.90;;;;;;4123290;28;20037;-73
2021/10/29 04:11:45;;;;;;;18.02;10.30;;;10.80;99.90;;;;;;4125606;28;20044;-73
2021/10/29 04:13:45;;;;;;;18.60;11.15;;;10.80;99.90;;;;;;4122835;28;20446;-73
2021/10/29 04:15:46;;;;;;;17.77;10.57;;;10.80;99.90;;;;;;4123023;28;21390;-73
2021/10/29 04:17:49;;;;;;;20.48;11.23;;;10.80;99.90;;;;;;4114556;28;20109;-73
2021/10/29 04:19:50;;;;;;;20.63;11.70;;;10.80;99.90;;;;;;4118651;28;20026;-73
2021/10/29 04:21:50;;;;;;;17.92;11.38;;;10.80;99.90;;;;;;4112689;28;20133;-73
2021/10/29 04:23:51;;;;;;;19.20;11.60;;;10.80;99.90;;;;;;4122819;28;21034;-73
2021/10/29 04:25:52;;;;;;;16.88;11.05;;;10.80;99.90;;;;;;4124323;28;20034;-73
2021/10/29 04:28:00;;;;;;;20.33;11.93;;;10.80;99.90;;;;;;4124445;28;20041;-73
2021/10/29 04:30:02;;;;;;;18.38;11.02;;;10.80;99.90;;;;;;4126488;28;20126;-73
2021/10/29 04:32:03;;;;;;;22.88;12.27;;;10.80;99.90;;;;;;4125068;28;20041;-73
2021/10/29 04:34:03;;;;;;;22.42;11.65;;;10.80;99.90;;;;;;4120692;28;20046;-74
2021/10/29 04:36:04;;;;;;;18.20;11.80;;;10.80;99.90;;;;;;4122883;28;20042;-73
2021/10/29 04:38:06;;;;;;;18.70;9.63;;;10.70;99.90;;;;;;4128050;28;20081;-73
2021/10/29 04:40:08;;;;;;;17.17;10.03;;;10.70;99.90;;;;;;4125745;28;20030;-73
2021/10/29 04:42:08;;;;;;;19.75;11.85;;;10.70;99.90;;;;;;4123154;28;20100;-73
2021/10/29 04:44:10;;;;;;;17.67;11.52;;;10.80;99.90;;;;;;4126159;28;20151;-73
2021/10/29 04:46:11;;;;;;;17.00;10.55;;;10.80;99.90;;;;;;4127739;28;20061;-73
2021/10/29 04:48:11;;;;;;;19.00;11.13;;;10.80;99.90;;;;;;4124576;28;20037;-73
2021/10/29 04:50:12;;;;;;;20.95;12.50;;;10.80;99.90;;;;;;4123621;28;20080;-73
2021/10/29 04:52:13;;;;;;;21.83;10.68;;;10.80;99.90;;;;;;4124571;28;20081;-74
2021/10/29 04:54:14;;;;;;;20.23;13.05;;;10.80;99.90;;;;;;4123600;28;20261;-74
2021/10/29 04:56:15;;;;;;;22.10;11.38;;;10.80;99.90;;;;;;4122118;28;20073;-75
2021/10/29 04:58:16;;;;;;;21.35;11.95;;;10.80;99.90;;;;;;4123159;28;20109;-75
2021/10/29 05:00:18;;;;;;;20.88;11.68;;;10.80;99.90;;;;;;4123431;28;20559;-75
2021/10/29 05:02:19;;;;;;;19.02;11.18;;;10.80;99.90;;;;;;4121074;28;20050;-74
2021/10/29 05:04:20;;;;;;;20.58;11.70;;;10.80;99.90;;;;;;4123943;28;20034;-75
2021/10/29 05:06:21;;;;;;;18.75;11.07;;;10.80;99.90;;;;;;4125003;28;20034;-74
2021/10/29 05:08:21;;;;;;;17.17;10.70;;;10.80;99.90;;;;;;4122731;28;20037;-75
2021/10/29 05:10:22;;;;;;;18.58;11.95;;;10.80;99.90;;;;;;4126443;28;20034;-75
2021/10/29 05:12:24;;;;;;;20.95;12.73;;;10.80;99.90;;;;;;4125807;28;20089;-75
2021/10/29 05:14:25;;;;;;;22.90;12.27;;;10.90;99.90;;;;;;4126064;28;20050;-74
2021/10/29 05:16:26;;;;;;;19.30;11.90;;;10.80;99.90;;;;;;4125578;28;20596;-75
2021/10/29 05:18:27;;;;;;;20.98;12.60;;;10.80;99.90;;;;;;4123923;28;20038;-75
2021/10/29 05:20:28;;;;;;;22.60;11.93;;;10.80;99.90;;;;;;4126677;28;20442;-75
2021/10/29 05:22:29;;;;;;;19.63;11.27;;;10.80;99.90;;;;;;4123387;28;20065;-75
2021/10/29 05:24:30;;;;;;;20.35;10.90;;;10.80;99.90;;;;;;4123324;28;20487;-74
2021/10/29 05:26:30;;;;;;;18.75;11.40;;;10.90;99.90;;;;;;4124194;28;20038;-75
2021/10/29 05:28:31;;;;;;;24.85;13.45;;;10.90;99.90;;;;;;4125788;28;20658;-75
2021/10/29 05:30:32;;;;;;;20.38;11.68;;;10.90;99.90;;;;;;4124382;28;20034;-75
2021/10/29 05:32:33;;;;;;;20.40;11.13;;;10.90;99.90;;;;;;4122122;28;20035;-74
2021/10/29 05:34:33;;;;;;;21.05;12.45;;;10.90;99.90;;;;;;4124395;28;20054;-74
2021/10/29 05:36:35;;;;;;;18.23;10.80;;;10.90;99.90;;;;;;4124242;28;20188;-74
2021/10/29 05:38:36;;;;;;;22.63;12.30;;;10.90;99.90;;;;;;4121605;28;20051;-74
2021/10/29 05:40:37;;;;;;;22.30;11.10;;;10.90;99.90;;;;;;4122555;28;20054;-74
2021/10/29 05:42:38;;;;;;;21.00;12.38;;;10.90;99.90;;;;;;4119267;28;20045;-74
2021/10/29 05:44:39;;;;;;;20.55;10.95;;;10.90;99.90;;;;;;4115515;28;20053;-71
2021/10/29 05:46:42;;;;;;;21.33;11.75;;;11.00;99.90;;;;;;4119223;28;20582;-71
2021/10/29 05:48:44;;;;;;;18.05;10.80;;;10.90;99.90;;;;;;4122683;28;20046;-72
2021/10/29 05:50:50;;;;;;;23.27;13.13;;;11.00;99.90;;;;;;4117448;28;20609;-71
2021/10/29 05:52:50;;;;;;;18.88;10.57;;;11.00;99.90;;;;;;4118511;28;21518;-71
2021/10/29 05:55:12;;;;;;;18.75;11.30;;;11.00;99.90;;;;;;4119906;28;20050;-71
2021/10/29 05:57:11;;;;;;;20.98;10.88;;;11.00;99.90;;;;;;4124028;28;20587;-71
2021/10/29 05:59:12;;;;;;;17.48;10.32;;;11.00;99.90;;;;;;4119932;28;20037;-71
2021/10/29 06:01:13;;;;;;;19.88;11.85;;;11.00;99.90;;;;;;4122126;28;20494;-71
2021/10/29 06:03:14;;;;;;;18.98;11.00;;;11.10;99.90;;;;;;4120608;28;20092;-71
2021/10/29 06:05:14;;;;;;;21.48;11.45;;;11.10;99.90;;;;;;4119199;28;20073;-71
2021/10/29 06:07:15;;;;;;;21.02;12.15;;;11.10;99.90;;;;;;4126579;28;20061;-72
2021/10/29 06:09:15;;;;;;;19.15;11.40;;;11.00;99.90;;;;;;4125652;28;20042;-71
2021/10/29 06:11:16;;;;;;;22.38;12.00;;;11.00;99.90;;;;;;4122508;28;20135;-71
2021/10/29 06:13:17;;;;;;;18.40;11.20;;;11.00;99.90;;;;;;4121307;28;20054;-72
2021/10/29 06:15:19;;;;;;;17.80;11.00;;;11.00;99.90;;;;;;4120781;28;20034;-72
2021/10/29 06:17:20;;;;;;;17.43;11.07;;;11.10;99.90;;;;;;4123223;28;20500;-72
2021/10/29 06:19:20;;;;;;;20.13;11.10;;;11.00;99.90;;;;;;4123161;28;20125;-72
2021/10/29 06:24:23;;;;;;;21.20;11.18;;;11.00;99.90;;;;;;4124578;28;20050;-72
2021/10/29 06:26:11;;;;;;;19.70;12.23;;;11.00;99.90;;;;;;4112271;28;20090;-72
2021/10/29 06:28:23;;;;;;;25.40;12.00;;;11.00;99.90;;;;;;4121547;28;20118;-72
2021/10/29 06:30:23;;;;;;;23.00;13.05;;;11.00;99.90;;;;;;4120010;28;20093;-72
2021/10/29 06:32:24;;;;;;;19.70;11.68;;;11.00;99.90;;;;;;4120164;28;20937;-72
2021/10/29 06:34:25;;;;;;;18.55;11.10;;;11.00;99.90;;;;;;4120841;28;20096;-72
2021/10/29 06:36:26;;;;;;;26.05;10.45;;;11.00;99.90;;;;;;4121123;28;20505;-72
2021/10/29 06:38:26;;;;;;;19.08;11.57;;;11.00;99.90;;;;;;4121303;28;20045;-73
2021/10/29 06:40:28;;;;;;;20.15;11.90;;;11.00;99.90;;;;;;4119444;28;20069;-72
2021/10/29 06:42:31;;;;;;;20.55;12.25;;;11.00;99.90;;;;;;4120882;28;20486;-72
2021/10/29 06:44:40;;;;;;;19.33;11.45;;;11.00;99.90;;;;;;4120580;28;20129;-73
2021/10/29 06:49:08;;;;;;;21.73;11.05;;;11.10;99.90;;;;;;4122684;28;20038;-73
2021/10/29 07:42:20;;;;;;;25.65;14.18;;;11.50;99.90;;;;;;4081770;28;20553;-71
2021/10/29 07:44:27;;;;;;;23.70;13.32;;;11.50;99.90;;;;;;4120619;28;20034;-72
2021/10/29 07:46:30;;;;;;;22.60;11.90;;;11.50;99.90;;;;;;4123775;28;20120;-72
2021/10/29 07:48:33;;;;;;;23.50;11.60;;;11.60;99.90;;;;;;4123758;28;20370;-72
2021/10/29 07:50:34;;;;;;;18.85;11.27;;;11.70;99.90;;;;;;4120201;28;20052;-72
2021/10/29 07:52:37;;;;;;;17.90;10.38;;;11.80;99.90;;;;;;4120044;28;20136;-72
2021/10/29 07:54:44;;;;;;;20.50;11.98;;;11.90;99.90;;;;;;4120745;28;20050;-72
2021/10/29 07:56:44;;;;;;;18.90;10.75;;;12.00;99.90;;;;;;4118971;28;20065;-72
2021/10/29 07:58:45;;;;;;;19.25;10.20;;;12.10;99.90;;;;;;4119528;28;20045;-72
2021/10/29 08:00:46;;;;;;;19.27;10.95;;;12.20;99.90;;;;;;4119126;28;20869;-72
2021/10/29 08:02:50;;;;;;;16.10;9.50;;;12.30;99.90;;;;;;4121235;28;20075;-72
2021/10/29 08:04:52;;;;;;;16.02;9.75;;;12.40;99.90;;;;;;4118367;28;20045;-72
2021/10/29 08:06:53;;;;;;;15.30;9.48;;;12.60;99.90;;;;;;4121434;28;20121;-72
2021/10/29 08:08:54;;;;;;;19.20;10.20;;;12.80;99.90;;;;;;4118908;28;20578;-72
2021/10/29 08:10:55;;;;;;;15.95;9.50;;;12.90;99.90;;;;;;4119657;28;20242;-72
2021/10/29 08:12:56;;;;;;;19.45;9.68;;;13.00;99.90;;;;;;4113387;28;20274;-72
2021/10/29 08:14:57;;;;;;;14.82;9.30;;;13.20;99.90;;;;;;4120545;28;20053;-72
2021/10/29 08:16:57;;;;;;;17.48;9.55;;;13.30;99.90;;;;;;4120119;28;20042;-72
2021/10/29 08:18:58;;;;;;;18.23;9.57;;;13.40;99.90;;;;;;4120459;28;20045;-72
2021/10/29 08:20:59;;;;;;;20.85;11.63;;;13.60;99.90;;;;;;4118903;28;20037;-72
2021/10/29 08:22:59;;;;;;;15.38;9.05;;;13.80;99.90;;;;;;4121724;28;20050;-72
2021/10/29 08:25:00;;;;;;;15.93;8.80;;;14.00;99.90;;;;;;4118377;28;20057;-72
2021/10/29 08:27:02;;;;;;;16.58;9.98;;;14.20;99.90;;;;;;4120847;28;20038;-72
2021/10/29 08:29:02;;;;;;;19.67;10.95;;;14.30;99.90;;;;;;4120495;28;20037;-72
2021/10/29 08:31:03;;;;;;;14.88;9.70;;;14.50;99.90;;;;;;4108946;28;20142;-73
2021/10/29 08:33:03;;;;;;;16.52;9.27;;;14.60;99.90;;;;;;4117899;28;20041;-73
2021/10/29 08:35:06;;;;;;;17.10;9.63;;;14.70;99.90;;;;;;4120033;28;20049;-72
2021/10/29 08:37:07;;;;;;;14.48;8.80;;;14.80;99.90;;;;;;4118892;28;20583;-72
2021/10/29 08:39:09;;;;;;;16.10;9.07;;;14.80;99.90;;;;;;4120875;28;20683;-73
2021/10/29 08:41:10;;;;;;;13.60;8.05;;;14.80;99.90;;;;;;4120037;28;20040;-73
2021/10/29 08:43:11;;;;;;;12.07;7.82;;;14.80;99.90;;;;;;4104543;28;20050;-73
2021/10/29 08:45:12;;;;;;;15.02;7.97;;;15.00;99.90;;;;;;4120008;28;20042;-73
2021/10/29 08:47:13;;;;;;;13.73;8.73;;;15.00;99.90;;;;;;4117616;28;21347;-73
2021/10/29 08:49:18;;;;;;;21.02;9.45;;;15.00;99.90;;;;;;4120766;28;20526;-73
2021/10/29 08:51:19;;;;;;;13.68;8.43;;;14.90;99.90;;;;;;4118845;28;20034;-73
2021/10/29 08:53:19;;;;;;;16.15;9.52;;;14.80;99.90;;;;;;4121098;28;20430;-73
2021/10/29 08:55:26;;;;;;;14.48;8.07;;;14.70;99.90;;;;;;4120691;28;20050;-73
2021/10/29 08:57:27;;;;;;;13.82;7.60;;;14.80;99.90;;;;;;4120139;28;20044;-73
2021/10/29 08:59:31;;;;;;;13.97;7.87;;;14.90;99.90;;;;;;4118341;28;20085;-73
2021/10/29 09:02:11;;;;;;;15.13;8.73;;;14.90;99.90;;;;;;4119813;28;20034;-73
2021/10/29 09:04:12;;;;;;;16.25;8.45;;;15.00;99.90;;;;;;4121620;28;20389;-73
2021/10/29 09:09:00;;;;;;;15.65;8.45;;;15.00;99.90;;;;;;4102704;28;20691;-73
2021/10/29 09:32:00;;;;;;;12.20;7.40;;;15.10;99.90;;;;;;4122050;28;20038;-73
2021/10/29 09:34:12;;;;;;;18.48;8.60;;;15.00;99.90;;;;;;4123579;28;20125;-72
2021/10/29 09:36:35;;;;;;;15.50;8.90;;;15.00;99.90;;;;;;4119912;28;20473;-72
2021/10/29 09:38:36;;;;;;;15.88;8.32;;;15.00;99.90;;;;;;4119477;28;20018;-73
2021/10/29 09:40:41;;;;;;;13.45;8.32;;;15.00;99.90;;;;;;4120787;28;20346;-73
2021/10/29 09:42:42;;;;;;;13.10;7.68;;;14.90;99.90;;;;;;4122566;28;20045;-73
2021/10/29 09:44:46;;;;;;;13.00;7.55;;;14.90;99.90;;;;;;4121915;28;20065;-73
2021/10/29 09:46:57;;;;;;;16.42;7.75;;;15.00;99.90;;;;;;4122349;28;20035;-72
2021/10/29 09:49:08;;;;;;;11.07;7.60;;;15.00;99.90;;;;;;4120923;28;20037;-73
2021/10/29 09:51:12;;;;;;;13.25;8.30;;;15.00;99.90;;;;;;4118671;28;20057;-72
2021/10/29 09:53:23;;;;;;;14.85;8.68;;;14.90;99.90;;;;;;4122469;28;20611;-73
2021/10/29 09:55:35;;;;;;;13.90;7.40;;;14.90;99.90;;;;;;4124072;28;20057;-73
2021/10/29 09:57:36;;;;;;;13.93;7.63;;;14.80;99.90;;;;;;4123573;28;20033;-72
2021/10/29 09:59:37;;;;;;;12.13;7.60;;;14.80;99.90;;;;;;4120245;28;20042;-72
2021/10/29 10:01:38;;;;;;;14.02;7.47;;;14.90;99.90;;;;;;4121369;28;20134;-72
2021/10/29 10:03:39;;;;;;;13.40;8.20;;;14.80;99.90;;;;;;4122380;28;20057;-72
2021/10/29 10:05:41;;;;;;;10.23;7.15;;;14.80;99.90;;;;;;4120484;28;20046;-72
2021/10/29 10:07:45;;;;;;;11.45;6.95;;;14.70;99.90;;;;;;4121709;28;20034;-71
2021/10/29 10:09:47;;;;;;;14.68;8.32;;;14.80;99.90;;;;;;4121264;28;20116;-71
2021/10/29 10:11:50;;;;;;;12.73;8.13;;;14.80;99.90;;;;;;4122444;28;20457;-71
2021/10/29 10:13:52;;;;;;;;;;;14.70;99.90;;;;;;4121003;28;20035;-71
2021/10/29 10:15:58;;;;;;;15.73;8.40;;;14.70;99.90;;;;;;4119703;28;19922;-72
2021/10/29 10:17:59;;;;;;;11.50;6.85;;;14.70;99.90;;;;;;4119741;28;20518;-72
2021/10/29 10:20:02;;;;;;;11.32;7.25;;;14.70;99.90;;;;;;4119448;28;20517;-71
2021/10/29 10:22:05;;;;;;;13.57;8.52;;;14.70;99.90;;;;;;4120066;28;20052;-71
2021/10/29 10:24:13;;;;;;;11.75;7.22;;;14.70;99.90;;;;;;4120733;28;20081;-71
2021/10/29 10:42:49;;;;;;;14.65;7.60;;;14.50;99.90;;;;;;4119682;28;20733;-71
2021/10/29 10:47:07;;;;;;;15.60;7.47;;;14.60;99.90;;;;;;4121496;28;20026;-71
2021/10/29 10:49:12;;;;;;;12.38;7.53;;;14.60;99.90;;;;;;4122715;28;20030;-71
2021/10/29 10:53:42;;;;;;;11.95;6.55;;;14.60;99.90;;;;;;4118945;28;20483;-71
2021/10/29 10:56:59;;;;;;;10.35;6.95;;;14.60;99.90;;;;;;4122030;28;20085;-71
2021/10/29 10:59:26;;;;;;;12.30;7.38;;;14.60;99.90;;;;;;4082969;28;20125;-71
2021/10/29 11:02:06;;;;;;;12.48;7.68;;;14.70;99.90;;;;;;4120503;28;20035;-72
2021/10/29 11:07:03;;;;;;;11.93;6.60;;;14.70;99.90;;;;;;4118192;28;20192;-72
2021/10/29 11:11:25;;;;;;;10.00;5.85;;;14.80;99.90;;;;;;4121772;28;20245;-72
2021/10/29 11:13:44;;;;;;;12.13;6.28;;;14.90;99.90;;;;;;4125900;28;20386;-72
2021/10/29 11:15:58;;;;;;;12.55;6.18;;;14.90;99.90;;;;;;4117360;28;20049;-72
2021/10/29 11:18:17;;;;;;;11.70;6.47;;;14.90;99.90;;;;;;4121386;28;20042;-71
2021/10/29 11:20:38;;;;;;;11.43;6.10;;;15.00;99.90;;;;;;4120227;28;20038;-72
2021/10/29 11:22:45;;;;;;;9.88;5.60;;;15.10;99.90;;;;;;4120712;28;20058;-72
2021/10/29 11:24:49;;;;;;;6.78;4.90;;;15.20;99.90;;;;;;4124032;28;20041;-72
2021/10/29 11:26:50;;;;;;;10.52;6.32;;;15.20;99.90;;;;;;4121253;28;20038;-72
2021/10/29 11:28:54;;;;;;;12.13;6.60;;;15.20;99.90;;;;;;4127717;28;20034;-72
2021/10/29 11:30:56;;;;;;;12.32;6.65;;;15.20;99.90;;;;;;4120470;28;20030;-72
2021/10/29 11:32:58;;;;;;;;;;;15.20;99.90;;;;;;4121360;28;20026;-72
2021/10/29 11:35:01;;;;;;;13.30;5.97;;;15.20;99.90;;;;;;4119681;28;19926;-72
2021/10/29 11:37:02;;;;;;;11.55;5.70;;;15.30;99.90;;;;;;4122617;28;20030;-72
2021/10/29 11:39:09;;;;;;;7.05;4.88;;;15.30;99.90;;;;;;4123906;28;20104;-72
2021/10/29 11:41:17;;;;;;;14.45;6.63;;;15.30;99.90;;;;;;4121639;28;20149;-72
2021/10/29 11:43:24;;;;;;;8.52;5.55;;;15.30;99.90;;;;;;4119792;28;20052;-72
2021/10/29 11:45:38;;;;;;;12.30;6.22;;;15.30;99.90;;;;;;4122248;28;20816;-72
2021/10/29 11:47:39;;;;;;;10.60;6.15;;;15.30;99.90;;;;;;4118442;28;21078;-72
2021/10/29 11:49:40;;;;;;;9.75;5.25;;;15.30;99.90;;;;;;4121655;28;20046;-72
2021/10/29 11:51:42;;;;;;;9.32;5.35;;;15.30;99.90;;;;;;4138434;28;20893;-72
2021/10/29 11:53:49;;;;;;;8.27;5.03;;;15.30;99.90;;;;;;4125025;28;20046;-72
2021/10/29 11:55:55;;;;;;;9.93;5.22;;;15.30;99.90;;;;;;4120885;28;20049;-72
2021/10/29 11:58:12;;;;;;;12.25;6.20;;;15.30;99.90;;;;;;4121234;28;20059;-72
2021/10/29 12:00:38;;;;;;;10.30;5.97;;;15.30;99.90;;;;;;4121892;28;20042;-72
2021/10/29 12:07:24;;;;;;;8.93;5.97;;;15.40;99.90;;;;;;4118754;28;20042;-72
2021/10/29 12:09:25;;;;;;;10.93;5.90;;;15.40;99.90;;;;;;4119586;28;20676;-72
2021/10/29 12:11:26;;;;;;;9.88;6.05;;;15.40;99.90;;;;;;4122434;28;20514;-72
2021/10/29 12:13:28;;;;;;;11.57;5.75;;;15.40;99.90;;;;;;4121918;28;20032;-72
2021/10/29 12:15:31;;;;;;;11.87;6.03;;;15.40;99.90;;;;;;4116677;28;20042;-72
2021/10/29 12:17:39;;;;;;;10.85;5.07;;;15.40;99.90;;;;;;4117874;28;20050;-72
2021/10/29 12:19:42;;;;;;;9.88;5.05;;;15.40;99.90;;;;;;4122350;28;21451;-72
2021/10/29 12:21:46;;;;;;;9.15;5.30;;;15.50;99.90;;;;;;4124726;28;20046;-72
2021/10/29 12:23:51;;;;;;;8.32;5.63;;;15.50;99.90;;;;;;4122070;28;20640;-72
2021/10/29 12:30:46;;;;;;;12.73;5.05;;;15.60;99.90;;;;;;4066256;29;20044;-72
2021/10/29 12:33:21;;;;;;;8.98;5.60;;;15.60;99.90;;;;;;4103903;28;20586;-72
2021/10/29 12:54:39;;;;;;;8.32;4.25;;;15.80;99.90;;;;;;4120608;28;20030;-72